sensor_id;sensor_type;location;lat;lon;timestamp;pressure;altitude;pressure_sealevel;temperature;humidity
72486;BME280;60509;47.308;-122.428;2023-01-16T00:01:39;98512.36;;;1.00;53.37
72486;BME280;60509;47.308;-122.428;2023-01-16T00:04:04;98514.00;;;0.12;53.59
72486;BME280;60509;47.308;-122.428;2023-01-16T00:06:29;98515.91;;;0.50;53.16
72486;BME280;60509;47.308;-122.428;2023-01-16T00:08:55;98518.41;;;0.43;54.00
72486;BME280;60509;47.308;-122.428;2023-01-16T00:11:20;98522.73;;;-0.35;54.49
72486;BME280;60509;47.308;-122.428;2023-01-16T00:13:46;98523.31;;;0.20;55.72
72486;BME280;60509;47.308;-122.428;2023-01-16T00:16:11;98527.37;;;0.07;54.63
72486;BME280;60509;47.308;-122.428;2023-01-16T00:18:37;98533.28;;;-0.22;55.00
72486;BME280;60509;47.308;-122.428;2023-01-16T00:21:03;98538.76;;;0.31;55.01
72486;BME280;60509;47.308;-122.428;2023-01-16T00:23:28;98542.20;;;0.28;54.51
72486;BME280;60509;47.308;-122.428;2023-01-16T00:25:53;98539.81;;;0.52;54.20
72486;BME280;60509;47.308;-122.428;2023-01-16T00:28:19;98546.42;;;-0.09;54.13
72486;BME280;60509;47.308;-122.428;2023-01-16T00:30:45;98548.55;;;0.79;53.18
72486;BME280;60509;47.308;-122.428;2023-01-16T00:33:10;98554.78;;;-0.67;55.68
72486;BME280;60509;47.308;-122.428;2023-01-16T00:35:35;98554.90;;;0.26;54.65
72486;BME280;60509;47.308;-122.428;2023-01-16T00:38:00;98561.53;;;-0.56;54.89
72486;BME280;60509;47.308;-122.428;2023-01-16T00:40:26;98559.53;;;-0.14;53.62
72486;BME280;60509;47.308;-122.428;2023-01-16T00:42:51;98567.08;;;-0.13;54.27
72486;BME280;60509;47.308;-122.428;2023-01-16T00:45:17;98565.80;;;0.45;53.42
72486;BME280;60509;47.308;-122.428;2023-01-16T00:47:42;98569.19;;;-0.12;55.10
72486;BME280;60509;47.308;-122.428;2023-01-16T00:50:09;98577.11;;;-0.76;56.27
72486;BME280;60509;47.308;-122.428;2023-01-16T00:52:33;98578.73;;;-0.69;55.41
72486;BME280;60509;47.308;-122.428;2023-01-16T00:54:59;98588.49;;;-0.42;55.25
72486;BME280;60509;47.308;-122.428;2023-01-16T00:57:25;98589.47;;;-0.58;54.96
72486;BME280;60509;47.308;-122.428;2023-01-16T00:59:50;98588.96;;;-0.55;54.06
72486;BME280;60509;47.308;-122.428;2023-01-16T01:02:15;98600.13;;;-1.09;55.07
72486;BME280;60509;47.308;-122.428;2023-01-16T01:04:41;98600.27;;;-0.11;53.67
72486;BME280;60509;47.308;-122.428;2023-01-16T01:07:06;98604.41;;;0.28;52.76
72486;BME280;60509;47.308;-122.428;2023-01-16T01:09:32;98608.24;;;0.10;53.32
72486;BME280;60509;47.308;-122.428;2023-01-16T01:11:57;98607.99;;;-0.10;53.01
72486;BME280;60509;47.308;-122.428;2023-01-16T01:14:23;98616.32;;;-1.07;54.80
72486;BME280;60509;47.308;-122.428;2023-01-16T01:16:48;98619.20;;;-0.86;54.16
72486;BME280;60509;47.308;-122.428;2023-01-16T01:19:14;98619.74;;;-0.10;53.53
72486;BME280;60509;47.308;-122.428;2023-01-16T01:21:39;98624.15;;;-1.13;53.53
72486;BME280;60509;47.308;-122.428;2023-01-16T01:24:05;98628.06;;;-1.51;54.85
72486;BME280;60509;47.308;-122.428;2023-01-16T01:26:30;98633.93;;;-0.29;53.17
72486;BME280;60509;47.308;-122.428;2023-01-16T01:28:55;98632.68;;;-0.29;52.98
72486;BME280;60509;47.308;-122.428;2023-01-16T01:31:21;98631.92;;;0.21;52.28
72486;BME280;60509;47.308;-122.428;2023-01-16T01:33:46;98639.64;;;-2.41;55.81
72486;BME280;60509;47.308;-122.428;2023-01-16T01:36:12;98641.13;;;-0.47;53.66
72486;BME280;60509;47.308;-122.428;2023-01-16T01:38:37;98643.13;;;-0.85;54.52
72486;BME280;60509;47.308;-122.428;2023-01-16T01:41:03;98646.35;;;-0.11;53.53
72486;BME280;60509;47.308;-122.428;2023-01-16T01:43:41;98653.11;;;-0.22;52.60
72486;BME280;60509;47.308;-122.428;2023-01-16T01:45:55;98654.61;;;-0.56;53.55
72486;BME280;60509;47.308;-122.428;2023-01-16T01:48:24;98659.66;;;-0.46;53.96
72486;BME280;60509;47.308;-122.428;2023-01-16T01:50:49;98667.58;;;-0.88;54.30
72486;BME280;60509;47.308;-122.428;2023-01-16T01:53:13;98669.65;;;0.07;53.63
72486;BME280;60509;47.308;-122.428;2023-01-16T01:55:36;98671.71;;;0.15;53.70
72486;BME280;60509;47.308;-122.428;2023-01-16T01:58:03;98675.68;;;0.70;53.32
72486;BME280;60509;47.308;-122.428;2023-01-16T02:00:27;98678.61;;;-0.09;53.00
72486;BME280;60509;47.308;-122.428;2023-01-16T02:02:56;98688.04;;;-1.38;54.47
72486;BME280;60509;47.308;-122.428;2023-01-16T02:05:21;98689.71;;;-0.61;53.74
72486;BME280;60509;47.308;-122.428;2023-01-16T02:07:42;98694.07;;;0.05;53.60
72486;BME280;60509;47.308;-122.428;2023-01-16T02:10:14;98699.58;;;-0.54;54.64
72486;BME280;60509;47.308;-122.428;2023-01-16T02:12:34;98703.89;;;-0.10;54.17
72486;BME280;60509;47.308;-122.428;2023-01-16T02:14:58;98711.80;;;-1.20;55.82
72486;BME280;60509;47.308;-122.428;2023-01-16T02:17:23;98719.34;;;-0.98;54.87
72486;BME280;60509;47.308;-122.428;2023-01-16T02:20:07;98723.06;;;-0.78;54.75
72486;BME280;60509;47.308;-122.428;2023-01-16T02:22:56;98732.09;;;-1.50;56.42
72486;BME280;60509;47.308;-122.428;2023-01-16T02:24:59;98738.94;;;-1.74;57.25
72486;BME280;60509;47.308;-122.428;2023-01-16T02:27:19;98740.00;;;-1.45;56.43
72486;BME280;60509;47.308;-122.428;2023-01-16T02:29:49;98743.49;;;-1.57;57.36
72486;BME280;60509;47.308;-122.428;2023-01-16T02:32:03;98751.33;;;-1.94;57.36
72486;BME280;60509;47.308;-122.428;2023-01-16T02:34:36;98754.43;;;-0.97;55.48
72486;BME280;60509;47.308;-122.428;2023-01-16T02:36:56;98753.73;;;-0.61;54.72
72486;BME280;60509;47.308;-122.428;2023-01-16T02:39:21;98756.39;;;-0.29;55.48
72486;BME280;60509;47.308;-122.428;2023-01-16T02:41:43;98759.31;;;0.42;54.66
72486;BME280;60509;47.308;-122.428;2023-01-16T02:44:10;98759.48;;;-0.31;55.39
72486;BME280;60509;47.308;-122.428;2023-01-16T02:46:33;98759.07;;;-1.05;56.59
72486;BME280;60509;47.308;-122.428;2023-01-16T02:49:02;98761.38;;;-0.87;56.28
72486;BME280;60509;47.308;-122.428;2023-01-16T02:51:30;98765.99;;;-1.27;57.03
72486;BME280;60509;47.308;-122.428;2023-01-16T02:53:51;98767.30;;;-0.49;56.21
72486;BME280;60509;47.308;-122.428;2023-01-16T02:56:15;98768.36;;;-1.73;57.04
72486;BME280;60509;47.308;-122.428;2023-01-16T02:58:40;98768.65;;;-1.12;55.91
72486;BME280;60509;47.308;-122.428;2023-01-16T03:01:02;98768.72;;;-1.10;55.43
72486;BME280;60509;47.308;-122.428;2023-01-16T03:03:40;98767.82;;;0.33;52.28
72486;BME280;60509;47.308;-122.428;2023-01-16T03:05:59;98774.62;;;-0.79;54.54
72486;BME280;60509;47.308;-122.428;2023-01-16T03:08:28;98770.40;;;0.20;53.36
72486;BME280;60509;47.308;-122.428;2023-01-16T03:10:57;98776.70;;;-0.36;53.50
72486;BME280;60509;47.308;-122.428;2023-01-16T03:13:18;98775.87;;;-0.72;53.23
72486;BME280;60509;47.308;-122.428;2023-01-16T03:15:41;98776.91;;;0.87;52.33
72486;BME280;60509;47.308;-122.428;2023-01-16T03:18:08;98780.51;;;1.05;51.79
72486;BME280;60509;47.308;-122.428;2023-01-16T03:20:33;98784.48;;;0.34;52.44
72486;BME280;60509;47.308;-122.428;2023-01-16T03:22:58;98790.03;;;0.83;51.90
72486;BME280;60509;47.308;-122.428;2023-01-16T03:25:24;98795.31;;;-0.77;53.43
72486;BME280;60509;47.308;-122.428;2023-01-16T03:27:50;98792.98;;;0.81;51.98
72486;BME280;60509;47.308;-122.428;2023-01-16T03:30:13;98795.67;;;1.18;51.26
72486;BME280;60509;47.308;-122.428;2023-01-16T03:32:35;98801.48;;;0.31;52.46
72486;BME280;60509;47.308;-122.428;2023-01-16T03:35:03;98803.65;;;-1.02;54.49
72486;BME280;60509;47.308;-122.428;2023-01-16T03:37:28;98808.98;;;-0.33;53.40
72486;BME280;60509;47.308;-122.428;2023-01-16T03:39:53;98810.40;;;0.09;53.23
72486;BME280;60509;47.308;-122.428;2023-01-16T03:42:22;98814.27;;;-1.69;54.68
72486;BME280;60509;47.308;-122.428;2023-01-16T03:44:43;98818.68;;;-0.63;54.39
72486;BME280;60509;47.308;-122.428;2023-01-16T03:47:10;98824.17;;;-0.89;55.44
72486;BME280;60509;47.308;-122.428;2023-01-16T03:49:34;98824.09;;;-0.92;55.35
72486;BME280;60509;47.308;-122.428;2023-01-16T03:51:59;98829.42;;;-0.37;54.67
72486;BME280;60509;47.308;-122.428;2023-01-16T03:54:30;98832.50;;;-0.30;54.57
72486;BME280;60509;47.308;-122.428;2023-01-16T03:56:52;98840.87;;;-3.48;59.26
72486;BME280;60509;47.308;-122.428;2023-01-16T03:59:14;98846.26;;;-2.17;56.87
72486;BME280;60509;47.308;-122.428;2023-01-16T04:01:47;98851.90;;;-1.23;56.28
72486;BME280;60509;47.308;-122.428;2023-01-16T04:04:08;98861.78;;;-1.88;58.16
72486;BME280;60509;47.308;-122.428;2023-01-16T04:06:35;98864.78;;;-3.04;60.43
72486;BME280;60509;47.308;-122.428;2023-01-16T04:08:57;98873.04;;;-1.21;59.24
72486;BME280;60509;47.308;-122.428;2023-01-16T04:11:23;98881.64;;;-1.97;60.67
72486;BME280;60509;47.308;-122.428;2023-01-16T04:13:50;98886.37;;;-3.18;61.43
72486;BME280;60509;47.308;-122.428;2023-01-16T04:16:15;98889.79;;;-2.14;61.22
72486;BME280;60509;47.308;-122.428;2023-01-16T04:18:38;98894.26;;;-2.25;60.25
72486;BME280;60509;47.308;-122.428;2023-01-16T04:21:05;98901.94;;;-1.86;59.39
72486;BME280;60509;47.308;-122.428;2023-01-16T04:23:30;98902.98;;;-1.91;60.55
72486;BME280;60509;47.308;-122.428;2023-01-16T04:25:55;98905.60;;;-1.63;60.20
72486;BME280;60509;47.308;-122.428;2023-01-16T04:28:21;98907.22;;;-2.51;62.00
72486;BME280;60509;47.308;-122.428;2023-01-16T04:30:46;98914.49;;;-2.58;62.67
72486;BME280;60509;47.308;-122.428;2023-01-16T04:33:12;98917.77;;;-2.25;61.90
72486;BME280;60509;47.308;-122.428;2023-01-16T04:35:37;98918.72;;;-2.61;61.40
72486;BME280;60509;47.308;-122.428;2023-01-16T04:38:03;98924.04;;;-1.51;59.30
72486;BME280;60509;47.308;-122.428;2023-01-16T04:40:29;98926.54;;;-1.13;59.18
72486;BME280;60509;47.308;-122.428;2023-01-16T04:42:54;98924.39;;;-2.01;60.65
72486;BME280;60509;47.308;-122.428;2023-01-16T04:45:19;98934.12;;;-0.99;59.93
72486;BME280;60509;47.308;-122.428;2023-01-16T04:47:46;98935.56;;;-2.46;60.25
72486;BME280;60509;47.308;-122.428;2023-01-16T04:50:11;98936.96;;;-2.78;60.64
72486;BME280;60509;47.308;-122.428;2023-01-16T04:52:36;98946.31;;;-2.42;60.24
72486;BME280;60509;47.308;-122.428;2023-01-16T04:55:02;98948.95;;;-1.45;58.76
72486;BME280;60509;47.308;-122.428;2023-01-16T04:57:27;98953.04;;;-1.41;58.13
72486;BME280;60509;47.308;-122.428;2023-01-16T04:59:53;98959.68;;;-2.37;59.91
72486;BME280;60509;47.308;-122.428;2023-01-16T05:02:18;98957.80;;;-1.70;58.31
72486;BME280;60509;47.308;-122.428;2023-01-16T05:04:44;98962.80;;;-2.20;59.99
72486;BME280;60509;47.308;-122.428;2023-01-16T05:07:09;98966.89;;;-1.44;57.85
72486;BME280;60509;47.308;-122.428;2023-01-16T05:09:35;98968.22;;;-2.42;59.14
72486;BME280;60509;47.308;-122.428;2023-01-16T05:12:00;98969.57;;;-1.76;57.95
72486;BME280;60509;47.308;-122.428;2023-01-16T05:14:26;98980.61;;;-2.36;58.70
72486;BME280;60509;47.308;-122.428;2023-01-16T05:16:51;98986.85;;;-1.99;59.85
72486;BME280;60509;47.308;-122.428;2023-01-16T05:19:17;98991.88;;;-2.60;60.63
72486;BME280;60509;47.308;-122.428;2023-01-16T05:21:42;98989.23;;;-2.42;60.48
72486;BME280;60509;47.308;-122.428;2023-01-16T05:24:08;98993.31;;;-1.68;58.94
72486;BME280;60509;47.308;-122.428;2023-01-16T05:26:33;98996.04;;;-1.88;58.11
72486;BME280;60509;47.308;-122.428;2023-01-16T05:28:59;98999.25;;;-2.97;60.82
72486;BME280;60509;47.308;-122.428;2023-01-16T05:31:25;99007.60;;;-2.95;61.62
72486;BME280;60509;47.308;-122.428;2023-01-16T05:33:50;99007.10;;;-2.07;58.75
72486;BME280;60509;47.308;-122.428;2023-01-16T05:36:16;99008.23;;;-2.86;60.73
72486;BME280;60509;47.308;-122.428;2023-01-16T05:38:41;99014.42;;;-2.99;60.94
72486;BME280;60509;47.308;-122.428;2023-01-16T05:41:07;99023.01;;;-2.84;61.19
72486;BME280;60509;47.308;-122.428;2023-01-16T05:43:32;99020.37;;;-2.36;61.37
72486;BME280;60509;47.308;-122.428;2023-01-16T05:45:58;99017.97;;;-2.86;61.88
72486;BME280;60509;47.308;-122.428;2023-01-16T05:48:23;99020.86;;;-3.07;61.88
72486;BME280;60509;47.308;-122.428;2023-01-16T05:50:49;99028.83;;;-2.85;61.70
72486;BME280;60509;47.308;-122.428;2023-01-16T05:53:14;99032.32;;;-3.48;63.87
72486;BME280;60509;47.308;-122.428;2023-01-16T05:55:42;99034.45;;;-3.74;64.99
72486;BME280;60509;47.308;-122.428;2023-01-16T05:58:06;99037.43;;;-2.81;63.51
72486;BME280;60509;47.308;-122.428;2023-01-16T06:00:31;99036.13;;;-3.65;64.55
72486;BME280;60509;47.308;-122.428;2023-01-16T06:02:56;99045.72;;;-4.30;65.00
72486;BME280;60509;47.308;-122.428;2023-01-16T06:05:22;99051.60;;;-3.02;62.93
72486;BME280;60509;47.308;-122.428;2023-01-16T06:07:47;99058.89;;;-3.79;61.99
72486;BME280;60509;47.308;-122.428;2023-01-16T06:10:13;99055.83;;;-2.44;61.76
72486;BME280;60509;47.308;-122.428;2023-01-16T06:12:39;99054.71;;;-2.82;62.83
72486;BME280;60509;47.308;-122.428;2023-01-16T06:15:05;99055.02;;;-2.56;62.00
72486;BME280;60509;47.308;-122.428;2023-01-16T06:17:30;99059.90;;;-2.49;61.27
72486;BME280;60509;47.308;-122.428;2023-01-16T06:19:55;99062.63;;;-1.99;59.46
72486;BME280;60509;47.308;-122.428;2023-01-16T06:22:21;99069.21;;;-2.59;60.94
72486;BME280;60509;47.308;-122.428;2023-01-16T06:24:46;99070.48;;;-2.77;61.54
72486;BME280;60509;47.308;-122.428;2023-01-16T06:27:12;99072.12;;;-2.03;58.82
72486;BME280;60509;47.308;-122.428;2023-01-16T06:29:37;99077.63;;;-2.16;58.95
72486;BME280;60509;47.308;-122.428;2023-01-16T06:32:03;99078.13;;;-2.45;59.56
72486;BME280;60509;47.308;-122.428;2023-01-16T06:34:28;99085.97;;;-2.45;59.40
72486;BME280;60509;47.308;-122.428;2023-01-16T06:36:54;99096.06;;;-3.29;62.27
72486;BME280;60509;47.308;-122.428;2023-01-16T06:39:20;99102.10;;;-3.49;64.01
72486;BME280;60509;47.308;-122.428;2023-01-16T06:41:45;99104.89;;;-5.12;64.87
72486;BME280;60509;47.308;-122.428;2023-01-16T06:44:11;99110.62;;;-5.67;65.99
72486;BME280;60509;47.308;-122.428;2023-01-16T06:46:36;99116.19;;;-4.25;65.84
72486;BME280;60509;47.308;-122.428;2023-01-16T06:49:02;99115.39;;;-4.86;67.01
72486;BME280;60509;47.308;-122.428;2023-01-16T06:51:28;99121.24;;;-4.35;67.37
72486;BME280;60509;47.308;-122.428;2023-01-16T06:53:53;99119.87;;;-4.30;67.09
72486;BME280;60509;47.308;-122.428;2023-01-16T06:56:19;99128.03;;;-4.79;65.35
72486;BME280;60509;47.308;-122.428;2023-01-16T06:58:44;99129.19;;;-4.05;63.49
72486;BME280;60509;47.308;-122.428;2023-01-16T07:01:10;99134.76;;;-2.38;60.67
72486;BME280;60509;47.308;-122.428;2023-01-16T07:03:36;99137.87;;;-3.60;63.94
72486;BME280;60509;47.308;-122.428;2023-01-16T07:06:01;99141.06;;;-2.92;61.92
72486;BME280;60509;47.308;-122.428;2023-01-16T07:08:27;99143.73;;;-1.97;59.30
72486;BME280;60509;47.308;-122.428;2023-01-16T07:10:58;99154.28;;;-3.86;62.40
72486;BME280;60509;47.308;-122.428;2023-01-16T07:13:18;99150.07;;;-4.23;63.48
72486;BME280;60509;47.308;-122.428;2023-01-16T07:15:46;99151.21;;;-2.03;60.55
72486;BME280;60509;47.308;-122.428;2023-01-16T07:18:13;99151.81;;;-1.82;58.46
72486;BME280;60509;47.308;-122.428;2023-01-16T07:20:35;99156.20;;;-2.24;59.36
72486;BME280;60509;47.308;-122.428;2023-01-16T07:23:00;99161.10;;;-2.03;56.51
72486;BME280;60509;47.308;-122.428;2023-01-16T07:25:30;99161.61;;;-2.44;57.26
72486;BME280;60509;47.308;-122.428;2023-01-16T07:27:52;99165.41;;;-1.85;56.91
72486;BME280;60509;47.308;-122.428;2023-01-16T07:30:18;99169.48;;;-2.62;59.53
72486;BME280;60509;47.308;-122.428;2023-01-16T07:32:43;99172.61;;;-2.10;57.76
72486;BME280;60509;47.308;-122.428;2023-01-16T07:35:44;99172.82;;;-2.33;57.52
72486;BME280;60509;47.308;-122.428;2023-01-16T07:37:39;99179.08;;;-1.93;56.60
72486;BME280;60509;47.308;-122.428;2023-01-16T07:40:18;99176.19;;;-1.50;55.68
72486;BME280;60509;47.308;-122.428;2023-01-16T07:42:43;99180.41;;;-0.74;53.66
72486;BME280;60509;47.308;-122.428;2023-01-16T07:45:09;99178.11;;;-1.67;54.86
72486;BME280;60509;47.308;-122.428;2023-01-16T07:47:34;99184.98;;;-1.70;54.51
72486;BME280;60509;47.308;-122.428;2023-01-16T07:49:59;99190.73;;;-3.18;57.05
72486;BME280;60509;47.308;-122.428;2023-01-16T07:52:25;99190.50;;;-1.15;55.14
72486;BME280;60509;47.308;-122.428;2023-01-16T07:54:50;99194.14;;;-0.56;53.02
72486;BME280;60509;47.308;-122.428;2023-01-16T07:57:16;99195.97;;;-1.87;54.80
72486;BME280;60509;47.308;-122.428;2023-01-16T07:59:41;99201.78;;;-2.57;56.26
72486;BME280;60509;47.308;-122.428;2023-01-16T08:02:08;99208.15;;;-2.89;56.32
72486;BME280;60509;47.308;-122.428;2023-01-16T08:04:32;99202.29;;;-1.17;54.15
72486;BME280;60509;47.308;-122.428;2023-01-16T08:06:58;99202.72;;;-1.16;53.70
72486;BME280;60509;47.308;-122.428;2023-01-16T08:09:23;99207.56;;;-2.02;55.74
72486;BME280;60509;47.308;-122.428;2023-01-16T08:11:49;99209.78;;;-3.56;56.99
72486;BME280;60509;47.308;-122.428;2023-01-16T08:14:15;99211.49;;;-3.00;58.56
72486;BME280;60509;47.308;-122.428;2023-01-16T08:16:40;99211.67;;;-3.05;59.08
72486;BME280;60509;47.308;-122.428;2023-01-16T08:19:06;99213.27;;;-2.41;58.00
72486;BME280;60509;47.308;-122.428;2023-01-16T08:21:31;99214.53;;;-2.09;56.73
72486;BME280;60509;47.308;-122.428;2023-01-16T08:23:57;99216.79;;;-5.62;62.57
72486;BME280;60509;47.308;-122.428;2023-01-16T08:26:22;99218.57;;;-2.97;59.26
72486;BME280;60509;47.308;-122.428;2023-01-16T08:28:48;99218.24;;;-2.88;58.04
72486;BME280;60509;47.308;-122.428;2023-01-16T08:31:15;99221.24;;;-2.34;57.44
72486;BME280;60509;47.308;-122.428;2023-01-16T08:33:40;99222.30;;;-1.21;54.74
72486;BME280;60509;47.308;-122.428;2023-01-16T08:36:06;99228.05;;;-2.22;55.52
72486;BME280;60509;47.308;-122.428;2023-01-16T08:38:30;99235.17;;;-2.54;57.71
72486;BME280;60509;47.308;-122.428;2023-01-16T08:40:55;99239.28;;;-2.83;57.87
72486;BME280;60509;47.308;-122.428;2023-01-16T08:43:21;99236.44;;;-2.33;56.10
72486;BME280;60509;47.308;-122.428;2023-01-16T08:45:46;99241.43;;;-2.56;57.66
72486;BME280;60509;47.308;-122.428;2023-01-16T08:48:18;99238.71;;;-2.15;55.69
72486;BME280;60509;47.308;-122.428;2023-01-16T08:50:37;99238.70;;;-2.14;56.31
72486;BME280;60509;47.308;-122.428;2023-01-16T08:53:03;99239.15;;;-2.78;56.78
72486;BME280;60509;47.308;-122.428;2023-01-16T08:55:29;99241.62;;;-2.53;56.55
72486;BME280;60509;47.308;-122.428;2023-01-16T08:57:54;99238.80;;;-1.92;54.52
72486;BME280;60509;47.308;-122.428;2023-01-16T09:00:20;99237.55;;;-1.49;54.05
72486;BME280;60509;47.308;-122.428;2023-01-16T09:02:45;99238.13;;;-1.16;52.78
72486;BME280;60509;47.308;-122.428;2023-01-16T09:05:11;99243.34;;;-1.34;53.71
72486;BME280;60509;47.308;-122.428;2023-01-16T09:07:36;99244.43;;;-1.42;53.04
72486;BME280;60509;47.308;-122.428;2023-01-16T09:10:01;99248.36;;;-3.10;54.55
72486;BME280;60509;47.308;-122.428;2023-01-16T09:12:27;99251.45;;;-2.49;55.93
72486;BME280;60509;47.308;-122.428;2023-01-16T09:14:52;99251.32;;;-3.72;57.65
72486;BME280;60509;47.308;-122.428;2023-01-16T09:17:18;99253.07;;;-2.73;55.80
72486;BME280;60509;47.308;-122.428;2023-01-16T09:19:43;99256.38;;;-3.89;56.39
72486;BME280;60509;47.308;-122.428;2023-01-16T09:22:09;99253.83;;;-2.00;54.37
72486;BME280;60509;47.308;-122.428;2023-01-16T09:24:35;99256.66;;;-1.38;52.74
72486;BME280;60509;47.308;-122.428;2023-01-16T09:27:01;99256.08;;;-1.16;53.01
72486;BME280;60509;47.308;-122.428;2023-01-16T09:29:26;99261.28;;;-1.17;51.45
72486;BME280;60509;47.308;-122.428;2023-01-16T09:31:51;99259.80;;;0.73;48.95
72486;BME280;60509;47.308;-122.428;2023-01-16T09:34:17;99262.97;;;0.35;48.93
72486;BME280;60509;47.308;-122.428;2023-01-16T09:36:42;99265.26;;;0.46;48.19
72486;BME280;60509;47.308;-122.428;2023-01-16T09:39:08;99264.95;;;1.20;48.20
72486;BME280;60509;47.308;-122.428;2023-01-16T09:41:43;99268.88;;;0.08;48.83
72486;BME280;60509;47.308;-122.428;2023-01-16T09:43:59;99270.95;;;0.87;48.46
72486;BME280;60509;47.308;-122.428;2023-01-16T09:46:26;99273.90;;;1.06;47.98
72486;BME280;60509;47.308;-122.428;2023-01-16T09:48:54;99278.84;;;0.96;48.02
72486;BME280;60509;47.308;-122.428;2023-01-16T09:51:20;99280.61;;;0.02;48.89
72486;BME280;60509;47.308;-122.428;2023-01-16T09:53:44;99286.87;;;0.93;48.42
72486;BME280;60509;47.308;-122.428;2023-01-16T09:56:09;99287.53;;;0.85;48.85
72486;BME280;60509;47.308;-122.428;2023-01-16T09:58:32;99292.80;;;-0.22;49.86
72486;BME280;60509;47.308;-122.428;2023-01-16T10:00:58;99295.64;;;0.23;48.80
72486;BME280;60509;47.308;-122.428;2023-01-16T10:03:23;99298.46;;;-0.58;49.36
72486;BME280;60509;47.308;-122.428;2023-01-16T10:05:52;99306.63;;;-1.14;49.15
72486;BME280;60509;47.308;-122.428;2023-01-16T10:08:19;99308.78;;;-1.74;51.49
72486;BME280;60509;47.308;-122.428;2023-01-16T10:10:44;99312.85;;;-0.21;49.79
72486;BME280;60509;47.308;-122.428;2023-01-16T10:13:24;99314.29;;;-1.12;50.05
72486;BME280;60509;47.308;-122.428;2023-01-16T10:15:35;99318.68;;;0.38;48.65
72486;BME280;60509;47.308;-122.428;2023-01-16T10:18:02;99326.59;;;-1.41;51.33
72486;BME280;60509;47.308;-122.428;2023-01-16T10:20:41;99326.02;;;-1.16;49.95
72486;BME280;60509;47.308;-122.428;2023-01-16T10:22:54;99332.65;;;-1.30;51.52
72486;BME280;60509;47.308;-122.428;2023-01-16T10:25:21;99333.51;;;-1.03;51.11
72486;BME280;60509;47.308;-122.428;2023-01-16T10:27:42;99335.06;;;-1.31;51.13
72486;BME280;60509;47.308;-122.428;2023-01-16T10:30:09;99338.92;;;-0.51;50.26
72486;BME280;60509;47.308;-122.428;2023-01-16T10:32:33;99344.32;;;-1.51;52.40
72486;BME280;60509;47.308;-122.428;2023-01-16T10:34:59;99347.07;;;-1.53;52.22
72486;BME280;60509;47.308;-122.428;2023-01-16T10:37:21;99346.86;;;-0.42;50.54
72486;BME280;60509;47.308;-122.428;2023-01-16T10:39:45;99348.48;;;0.31;49.10
72486;BME280;60509;47.308;-122.428;2023-01-16T10:42:13;99349.25;;;-0.10;48.80
72486;BME280;60509;47.308;-122.428;2023-01-16T10:44:38;99355.43;;;-0.27;48.92
72486;BME280;60509;47.308;-122.428;2023-01-16T10:47:03;99357.67;;;0.87;48.42
72486;BME280;60509;47.308;-122.428;2023-01-16T10:49:27;99360.11;;;0.16;48.52
72486;BME280;60509;47.308;-122.428;2023-01-16T10:51:53;99362.64;;;-1.37;49.41
72486;BME280;60509;47.308;-122.428;2023-01-16T10:54:18;99360.37;;;0.54;47.39
72486;BME280;60509;47.308;-122.428;2023-01-16T10:56:44;99360.83;;;1.08;47.04
72486;BME280;60509;47.308;-122.428;2023-01-16T10:59:11;99364.09;;;-0.62;49.11
72486;BME280;60509;47.308;-122.428;2023-01-16T11:01:36;99368.16;;;-0.78;49.20
72486;BME280;60509;47.308;-122.428;2023-01-16T11:04:01;99365.55;;;-0.31;48.59
72486;BME280;60509;47.308;-122.428;2023-01-16T11:06:27;99369.13;;;-0.27;48.62
72486;BME280;60509;47.308;-122.428;2023-01-16T11:08:54;99375.82;;;-0.82;48.51
72486;BME280;60509;47.308;-122.428;2023-01-16T11:11:17;99378.82;;;-0.10;48.48
72486;BME280;60509;47.308;-122.428;2023-01-16T11:13:43;99382.45;;;-0.23;50.48
72486;BME280;60509;47.308;-122.428;2023-01-16T11:16:20;99386.68;;;-1.70;51.83
72486;BME280;60509;47.308;-122.428;2023-01-16T11:18:36;99386.24;;;-1.64;52.61
72486;BME280;60509;47.308;-122.428;2023-01-16T11:21:01;99389.63;;;-2.58;52.36
72486;BME280;60509;47.308;-122.428;2023-01-16T11:23:27;99388.36;;;-0.81;50.10
72486;BME280;60509;47.308;-122.428;2023-01-16T11:25:51;99395.96;;;-4.16;53.96
72486;BME280;60509;47.308;-122.428;2023-01-16T11:28:20;99397.33;;;-4.48;57.47
72486;BME280;60509;47.308;-122.428;2023-01-16T11:30:44;99402.30;;;-4.80;60.44
72486;BME280;60509;47.308;-122.428;2023-01-16T11:33:13;99402.26;;;-2.94;58.41
72486;BME280;60509;47.308;-122.428;2023-01-16T11:35:34;99402.14;;;-3.22;56.86
72486;BME280;60509;47.308;-122.428;2023-01-16T11:38:00;99404.70;;;-3.81;57.70
72486;BME280;60509;47.308;-122.428;2023-01-16T11:40:25;99407.85;;;-4.11;58.79
72486;BME280;60509;47.308;-122.428;2023-01-16T11:42:54;99408.09;;;-4.41;58.57
72486;BME280;60509;47.308;-122.428;2023-01-16T11:45:17;99409.07;;;-3.48;58.11
72486;BME280;60509;47.308;-122.428;2023-01-16T11:47:42;99414.86;;;-4.92;60.27
72486;BME280;60509;47.308;-122.428;2023-01-16T11:50:22;99418.51;;;-4.01;58.25
72486;BME280;60509;47.308;-122.428;2023-01-16T11:52:35;99422.27;;;-3.96;60.01
72486;BME280;60509;47.308;-122.428;2023-01-16T11:54:59;99423.47;;;-3.76;60.06
72486;BME280;60509;47.308;-122.428;2023-01-16T11:57:33;99424.97;;;-4.29;59.53
72486;BME280;60509;47.308;-122.428;2023-01-16T12:00:45;99424.52;;;-4.31;59.29
72486;BME280;60509;47.308;-122.428;2023-01-16T12:02:24;99426.19;;;-3.10;57.56
72486;BME280;60509;47.308;-122.428;2023-01-16T12:04:45;99431.22;;;-4.70;60.86
72486;BME280;60509;47.308;-122.428;2023-01-16T12:07:13;99430.45;;;-4.94;61.47
72486;BME280;60509;47.308;-122.428;2023-01-16T12:09:40;99434.09;;;-4.41;59.28
72486;BME280;60509;47.308;-122.428;2023-01-16T12:12:10;99430.84;;;-2.19;57.23
72486;BME280;60509;47.308;-122.428;2023-01-16T12:14:26;99434.81;;;-3.03;56.97
72486;BME280;60509;47.308;-122.428;2023-01-16T12:16:59;99435.60;;;-3.31;56.74
72486;BME280;60509;47.308;-122.428;2023-01-16T12:19:29;99435.54;;;-3.92;58.30
72486;BME280;60509;47.308;-122.428;2023-01-16T12:21:45;99436.37;;;-5.03;59.60